SBRJ/SDU METAR and TAF weather

Enter ICAO airport designator
Station Type Date Time Source
SBRJ METAR 2020/03/31 14:00 UTC NOAA

SBRJ 311400Z 16009KT 9999 SCT020 27/23 Q1014


Station Type Date Time Source
SBRJ Decoded METAR 2020/03/31 14:00 UTC NOAA

Rio De Janeiro Aeroporto , Brazil (SBRJ) 22-54S 043-10W
Mar 31, 2020 - 10:00 AM EDT / 2020.03.31 1400 UTC
Wind: from the SSE (160 degrees) at 10 MPH (9 KT):0
Visibility: greater than 7 mile(s):0
Sky conditions: partly cloudy
Temperature: 80 F (27 C)
Dew Point: 73 F (23 C)
Relative Humidity: 78%
Pressure (altimeter): 29.94 in. Hg (1014 hPa)
ob: SBRJ 311400Z 16009KT 9999 SCT020 27/23 Q1014
cycle: 14

Station Type Date Time Source
SBRJ TAF 2020/03/31 12:03 UTC NOAA

TAF SBRJ 310830Z 3112/3124 06005KT 7000 SCT015 BKN040 TX26/3117Z TN23/3123Z
BECMG 3115/3116 16013KT 9999 SCT025 PROB30 3117/3118 7000 RA SCT015 BKN035
BECMG 3122/3124 14005KT BKN025
RMK PGB

Example: see airport list